TAF Text Data
IDs:
Format:
Raw Decoded Include METAR

Data at: 1233 UTC 10 Jul 2020

KLEB 101128Z 1012/1112 00000KT 5SM BR SCT002
  FM101300 17007KT P6SM BKN200
  FM110000 16005KT 5SM -SHRA BR OVC012
  FM110500 03006KT 3SM -SHRA BR OVC002